Arsenal, Arkansas
Current Conditions -  °F | °C
As of 4:53 AM on Thursday 27 Nov 2014 (Local Time) from KPBF Reporting Station
Light Snow Light Snow  
Wind Chill: 32°   Ceiling: Unl
Heat Index: 37°   Visibility: 9mi
Dew Point: 27°   Wind: 6mph
Humidity: 67%   Direction: 330°NNW
Pressure: 30.44"   Gusts: NA
Location:  34.193°N, 91.9403°W
Report Text: KPBF 271053Z AUTO 33005KT 9SM -SN CLR 03/M03 A3044 RMK AO2 SNE0956B16 SLP306 P0000 T00281028
Loading
Personal Weather Stations






























Interactive Weather Map New forecast layout! Learn more

10-Day Weather Forecast

Advertisements
Track Severe Weather on mobile